sensor_id;sensor_type;location;lat;lon;timestamp;P1;durP1;ratioP1;P2;durP2;ratioP2
23565;SDS011;22140;48.988;8.544;2022-12-10T00:01:16;33.45;;;14.50;;
23565;SDS011;22140;48.988;8.544;2022-12-10T00:06:19;28.70;;;12.27;;
23565;SDS011;22140;48.988;8.544;2022-12-10T00:11:21;28.88;;;11.93;;
23565;SDS011;22140;48.988;8.544;2022-12-10T00:16:24;25.63;;;11.43;;
23565;SDS011;22140;48.988;8.544;2022-12-10T00:21:27;29.90;;;12.03;;
23565;SDS011;22140;48.988;8.544;2022-12-10T00:26:30;28.00;;;12.10;;
23565;SDS011;22140;48.988;8.544;2022-12-10T00:31:33;30.75;;;11.88;;
23565;SDS011;22140;48.988;8.544;2022-12-10T00:36:36;26.02;;;10.77;;
23565;SDS011;22140;48.988;8.544;2022-12-10T00:41:38;26.02;;;10.98;;
23565;SDS011;22140;48.988;8.544;2022-12-10T00:46:39;25.37;;;11.73;;
23565;SDS011;22140;48.988;8.544;2022-12-10T00:51:41;28.80;;;11.57;;
23565;SDS011;22140;48.988;8.544;2022-12-10T00:56:42;25.02;;;10.00;;
23565;SDS011;22140;48.988;8.544;2022-12-10T01:01:43;26.08;;;10.68;;
23565;SDS011;22140;48.988;8.544;2022-12-10T01:06:49;27.95;;;11.30;;
23565;SDS011;22140;48.988;8.544;2022-12-10T01:11:50;28.53;;;11.43;;
23565;SDS011;22140;48.988;8.544;2022-12-10T01:16:55;26.30;;;10.80;;
23565;SDS011;22140;48.988;8.544;2022-12-10T01:21:58;28.27;;;11.70;;
23565;SDS011;22140;48.988;8.544;2022-12-10T01:26:59;27.73;;;10.95;;
23565;SDS011;22140;48.988;8.544;2022-12-10T01:32:00;26.33;;;10.77;;
23565;SDS011;22140;48.988;8.544;2022-12-10T01:37:02;24.07;;;10.40;;
23565;SDS011;22140;48.988;8.544;2022-12-10T01:42:03;24.55;;;10.20;;
23565;SDS011;22140;48.988;8.544;2022-12-10T01:47:04;24.30;;;10.20;;
23565;SDS011;22140;48.988;8.544;2022-12-10T01:52:07;21.35;;;9.48;;
23565;SDS011;22140;48.988;8.544;2022-12-10T01:57:19;24.88;;;10.07;;
23565;SDS011;22140;48.988;8.544;2022-12-10T02:07:39;23.50;;;9.73;;
23565;SDS011;22140;48.988;8.544;2022-12-10T02:12:52;23.90;;;9.52;;
23565;SDS011;22140;48.988;8.544;2022-12-10T02:17:55;20.83;;;9.43;;
23565;SDS011;22140;48.988;8.544;2022-12-10T02:22:59;21.85;;;8.95;;
23565;SDS011;22140;48.988;8.544;2022-12-10T02:33:33;22.52;;;9.55;;
23565;SDS011;22140;48.988;8.544;2022-12-10T02:38:36;23.58;;;9.63;;
23565;SDS011;22140;48.988;8.544;2022-12-10T02:43:39;25.38;;;10.05;;
23565;SDS011;22140;48.988;8.544;2022-12-10T02:48:41;23.73;;;10.15;;
23565;SDS011;22140;48.988;8.544;2022-12-10T02:53:43;21.57;;;9.80;;
23565;SDS011;22140;48.988;8.544;2022-12-10T03:04:06;23.70;;;9.30;;
23565;SDS011;22140;48.988;8.544;2022-12-10T03:09:25;26.00;;;9.90;;
23565;SDS011;22140;48.988;8.544;2022-12-10T03:14:28;23.75;;;10.00;;
23565;SDS011;22140;48.988;8.544;2022-12-10T03:19:35;22.17;;;9.07;;
23565;SDS011;22140;48.988;8.544;2022-12-10T03:24:37;24.73;;;10.23;;
23565;SDS011;22140;48.988;8.544;2022-12-10T03:29:41;26.45;;;9.55;;
23565;SDS011;22140;48.988;8.544;2022-12-10T03:34:44;23.60;;;9.50;;
23565;SDS011;22140;48.988;8.544;2022-12-10T03:39:46;24.52;;;9.80;;
23565;SDS011;22140;48.988;8.544;2022-12-10T03:44:49;26.40;;;10.27;;
23565;SDS011;22140;48.988;8.544;2022-12-10T03:49:50;23.02;;;9.48;;
23565;SDS011;22140;48.988;8.544;2022-12-10T03:54:52;23.23;;;10.13;;
23565;SDS011;22140;48.988;8.544;2022-12-10T03:59:53;25.27;;;9.73;;
23565;SDS011;22140;48.988;8.544;2022-12-10T04:04:54;22.15;;;9.07;;
23565;SDS011;22140;48.988;8.544;2022-12-10T04:09:56;22.67;;;9.40;;
23565;SDS011;22140;48.988;8.544;2022-12-10T04:14:57;24.52;;;9.80;;
23565;SDS011;22140;48.988;8.544;2022-12-10T04:20:17;22.92;;;9.52;;
23565;SDS011;22140;48.988;8.544;2022-12-10T04:25:37;24.33;;;9.80;;
23565;SDS011;22140;48.988;8.544;2022-12-10T04:30:57;22.33;;;9.50;;
23565;SDS011;22140;48.988;8.544;2022-12-10T04:35:58;22.97;;;9.40;;
23565;SDS011;22140;48.988;8.544;2022-12-10T04:40:59;26.60;;;9.95;;
23565;SDS011;22140;48.988;8.544;2022-12-10T04:46:00;24.10;;;10.13;;
23565;SDS011;22140;48.988;8.544;2022-12-10T04:51:02;24.15;;;9.88;;
23565;SDS011;22140;48.988;8.544;2022-12-10T04:56:03;23.88;;;10.00;;
23565;SDS011;22140;48.988;8.544;2022-12-10T05:01:07;23.87;;;10.07;;
23565;SDS011;22140;48.988;8.544;2022-12-10T05:06:10;23.33;;;9.95;;
23565;SDS011;22140;48.988;8.544;2022-12-10T05:11:13;23.30;;;9.85;;
23565;SDS011;22140;48.988;8.544;2022-12-10T05:16:15;24.02;;;10.75;;
23565;SDS011;22140;48.988;8.544;2022-12-10T05:21:18;27.27;;;10.95;;
23565;SDS011;22140;48.988;8.544;2022-12-10T05:26:20;26.10;;;10.10;;
23565;SDS011;22140;48.988;8.544;2022-12-10T05:31:23;22.27;;;10.27;;
23565;SDS011;22140;48.988;8.544;2022-12-10T05:36:26;24.20;;;10.50;;
23565;SDS011;22140;48.988;8.544;2022-12-10T05:41:29;27.20;;;10.93;;
23565;SDS011;22140;48.988;8.544;2022-12-10T05:46:31;23.95;;;9.80;;
23565;SDS011;22140;48.988;8.544;2022-12-10T05:51:34;24.47;;;9.80;;
23565;SDS011;22140;48.988;8.544;2022-12-10T05:56:35;25.00;;;10.77;;
23565;SDS011;22140;48.988;8.544;2022-12-10T06:01:37;26.17;;;10.50;;
23565;SDS011;22140;48.988;8.544;2022-12-10T06:06:38;24.08;;;10.10;;
23565;SDS011;22140;48.988;8.544;2022-12-10T06:11:40;28.42;;;10.18;;
23565;SDS011;22140;48.988;8.544;2022-12-10T06:16:42;25.53;;;10.73;;
23565;SDS011;22140;48.988;8.544;2022-12-10T06:21:43;24.40;;;10.43;;
23565;SDS011;22140;48.988;8.544;2022-12-10T06:26:44;25.65;;;9.65;;
23565;SDS011;22140;48.988;8.544;2022-12-10T06:31:45;27.33;;;11.10;;
23565;SDS011;22140;48.988;8.544;2022-12-10T06:36:47;28.23;;;10.93;;
23565;SDS011;22140;48.988;8.544;2022-12-10T06:41:48;27.53;;;10.80;;
23565;SDS011;22140;48.988;8.544;2022-12-10T06:46:49;25.98;;;10.70;;
23565;SDS011;22140;48.988;8.544;2022-12-10T06:51:51;32.42;;;12.27;;
23565;SDS011;22140;48.988;8.544;2022-12-10T06:56:52;28.23;;;11.13;;
23565;SDS011;22140;48.988;8.544;2022-12-10T07:01:53;32.63;;;11.90;;
23565;SDS011;22140;48.988;8.544;2022-12-10T07:06:55;32.77;;;10.83;;
23565;SDS011;22140;48.988;8.544;2022-12-10T07:11:56;30.52;;;11.40;;
23565;SDS011;22140;48.988;8.544;2022-12-10T07:16:57;31.48;;;11.80;;
23565;SDS011;22140;48.988;8.544;2022-12-10T07:21:59;29.25;;;12.00;;
23565;SDS011;22140;48.988;8.544;2022-12-10T07:27:00;30.75;;;12.65;;
23565;SDS011;22140;48.988;8.544;2022-12-10T07:32:01;27.70;;;11.50;;
23565;SDS011;22140;48.988;8.544;2022-12-10T07:37:02;30.92;;;12.10;;
23565;SDS011;22140;48.988;8.544;2022-12-10T07:42:04;29.40;;;11.68;;
23565;SDS011;22140;48.988;8.544;2022-12-10T07:47:05;35.45;;;12.80;;
23565;SDS011;22140;48.988;8.544;2022-12-10T07:52:07;31.17;;;12.32;;
23565;SDS011;22140;48.988;8.544;2022-12-10T07:57:09;33.97;;;13.93;;
23565;SDS011;22140;48.988;8.544;2022-12-10T08:02:10;31.95;;;11.80;;
23565;SDS011;22140;48.988;8.544;2022-12-10T08:07:11;29.30;;;12.00;;
23565;SDS011;22140;48.988;8.544;2022-12-10T08:12:12;30.58;;;11.88;;
23565;SDS011;22140;48.988;8.544;2022-12-10T08:17:14;31.58;;;12.05;;
23565;SDS011;22140;48.988;8.544;2022-12-10T08:22:15;46.47;;;16.40;;
23565;SDS011;22140;48.988;8.544;2022-12-10T08:27:16;29.77;;;12.23;;
23565;SDS011;22140;48.988;8.544;2022-12-10T08:32:17;28.17;;;11.43;;
23565;SDS011;22140;48.988;8.544;2022-12-10T08:37:19;39.70;;;15.18;;
23565;SDS011;22140;48.988;8.544;2022-12-10T08:42:20;94.57;;;26.65;;
23565;SDS011;22140;48.988;8.544;2022-12-10T08:47:21;38.47;;;15.10;;
23565;SDS011;22140;48.988;8.544;2022-12-10T08:52:22;32.67;;;12.88;;
23565;SDS011;22140;48.988;8.544;2022-12-10T08:57:24;31.48;;;12.48;;
23565;SDS011;22140;48.988;8.544;2022-12-10T09:02:25;29.88;;;12.32;;
23565;SDS011;22140;48.988;8.544;2022-12-10T09:07:26;29.65;;;12.48;;
23565;SDS011;22140;48.988;8.544;2022-12-10T09:12:28;27.20;;;10.63;;
23565;SDS011;22140;48.988;8.544;2022-12-10T09:17:29;27.30;;;11.10;;
23565;SDS011;22140;48.988;8.544;2022-12-10T09:22:30;31.05;;;12.57;;
23565;SDS011;22140;48.988;8.544;2022-12-10T09:27:31;33.00;;;12.10;;
23565;SDS011;22140;48.988;8.544;2022-12-10T09:32:33;31.73;;;12.15;;
23565;SDS011;22140;48.988;8.544;2022-12-10T09:37:34;28.83;;;12.27;;
23565;SDS011;22140;48.988;8.544;2022-12-10T09:42:42;30.00;;;12.00;;
23565;SDS011;22140;48.988;8.544;2022-12-10T09:47:54;30.75;;;12.10;;
23565;SDS011;22140;48.988;8.544;2022-12-10T09:52:57;34.55;;;12.73;;
23565;SDS011;22140;48.988;8.544;2022-12-10T09:58:00;28.15;;;10.68;;
23565;SDS011;22140;48.988;8.544;2022-12-10T10:03:02;29.33;;;11.97;;
23565;SDS011;22140;48.988;8.544;2022-12-10T10:08:05;28.70;;;11.55;;
23565;SDS011;22140;48.988;8.544;2022-12-10T10:18:15;31.58;;;11.65;;
23565;SDS011;22140;48.988;8.544;2022-12-10T10:23:18;30.92;;;11.57;;
23565;SDS011;22140;48.988;8.544;2022-12-10T10:28:20;27.43;;;11.00;;
23565;SDS011;22140;48.988;8.544;2022-12-10T10:33:22;27.45;;;10.55;;
23565;SDS011;22140;48.988;8.544;2022-12-10T10:38:25;36.67;;;10.90;;
23565;SDS011;22140;48.988;8.544;2022-12-10T10:43:31;27.23;;;11.07;;
23565;SDS011;22140;48.988;8.544;2022-12-10T10:48:33;24.35;;;10.45;;
23565;SDS011;22140;48.988;8.544;2022-12-10T10:53:47;34.30;;;13.70;;
23565;SDS011;22140;48.988;8.544;2022-12-10T11:03:53;64.22;;;14.30;;
23565;SDS011;22140;48.988;8.544;2022-12-10T11:08:57;28.83;;;11.50;;
23565;SDS011;22140;48.988;8.544;2022-12-10T11:14:15;44.15;;;13.02;;
23565;SDS011;22140;48.988;8.544;2022-12-10T11:19:21;29.87;;;10.67;;
23565;SDS011;22140;48.988;8.544;2022-12-10T11:24:24;32.83;;;11.23;;
23565;SDS011;22140;48.988;8.544;2022-12-10T11:45:12;33.37;;;11.27;;
23565;SDS011;22140;48.988;8.544;2022-12-10T12:00:50;24.13;;;10.27;;
23565;SDS011;22140;48.988;8.544;2022-12-10T12:11:28;32.40;;;10.83;;
23565;SDS011;22140;48.988;8.544;2022-12-10T12:16:32;23.85;;;10.43;;
23565;SDS011;22140;48.988;8.544;2022-12-10T12:21:36;28.38;;;10.25;;
23565;SDS011;22140;48.988;8.544;2022-12-10T12:26:42;24.95;;;9.95;;
23565;SDS011;22140;48.988;8.544;2022-12-10T12:37:08;27.23;;;10.13;;
23565;SDS011;22140;48.988;8.544;2022-12-10T12:52:43;27.17;;;10.10;;
23565;SDS011;22140;48.988;8.544;2022-12-10T12:57:53;27.45;;;10.25;;
23565;SDS011;22140;48.988;8.544;2022-12-10T13:13:24;24.80;;;9.77;;
23565;SDS011;22140;48.988;8.544;2022-12-10T13:18:36;22.85;;;9.02;;
23565;SDS011;22140;48.988;8.544;2022-12-10T13:23:48;27.33;;;10.63;;
23565;SDS011;22140;48.988;8.544;2022-12-10T13:28:54;26.80;;;9.43;;
23565;SDS011;22140;48.988;8.544;2022-12-10T13:44:23;24.77;;;9.50;;
23565;SDS011;22140;48.988;8.544;2022-12-10T13:49:27;26.08;;;11.30;;
23565;SDS011;22140;48.988;8.544;2022-12-10T14:09:42;30.40;;;8.95;;
23565;SDS011;22140;48.988;8.544;2022-12-10T14:14:47;20.90;;;9.55;;
23565;SDS011;22140;48.988;8.544;2022-12-10T14:19:50;22.27;;;8.37;;
23565;SDS011;22140;48.988;8.544;2022-12-10T14:24:53;19.08;;;7.70;;
23565;SDS011;22140;48.988;8.544;2022-12-10T14:30:01;21.25;;;7.78;;
23565;SDS011;22140;48.988;8.544;2022-12-10T14:35:04;19.30;;;7.60;;
23565;SDS011;22140;48.988;8.544;2022-12-10T14:40:06;19.33;;;7.15;;
23565;SDS011;22140;48.988;8.544;2022-12-10T14:45:11;19.83;;;7.40;;
23565;SDS011;22140;48.988;8.544;2022-12-10T14:50:15;16.88;;;7.60;;
23565;SDS011;22140;48.988;8.544;2022-12-10T14:55:19;17.15;;;6.80;;
23565;SDS011;22140;48.988;8.544;2022-12-10T15:00:22;22.33;;;8.13;;
23565;SDS011;22140;48.988;8.544;2022-12-10T15:05:28;18.25;;;8.20;;
23565;SDS011;22140;48.988;8.544;2022-12-10T15:10:32;16.60;;;7.10;;
23565;SDS011;22140;48.988;8.544;2022-12-10T15:15:37;19.42;;;8.48;;
23565;SDS011;22140;48.988;8.544;2022-12-10T15:20:45;63.40;;;21.95;;
23565;SDS011;22140;48.988;8.544;2022-12-10T15:25:51;22.60;;;9.30;;
23565;SDS011;22140;48.988;8.544;2022-12-10T15:30:57;23.33;;;9.00;;
23565;SDS011;22140;48.988;8.544;2022-12-10T15:36:30;21.53;;;8.47;;
23565;SDS011;22140;48.988;8.544;2022-12-10T15:41:37;21.83;;;10.10;;
23565;SDS011;22140;48.988;8.544;2022-12-10T15:46:48;20.00;;;8.55;;
23565;SDS011;22140;48.988;8.544;2022-12-10T15:51:49;19.25;;;8.55;;
23565;SDS011;22140;48.988;8.544;2022-12-10T15:56:51;19.00;;;8.48;;
23565;SDS011;22140;48.988;8.544;2022-12-10T16:01:52;20.83;;;8.20;;
23565;SDS011;22140;48.988;8.544;2022-12-10T16:06:54;17.05;;;7.22;;
23565;SDS011;22140;48.988;8.544;2022-12-10T16:11:55;18.35;;;7.70;;
23565;SDS011;22140;48.988;8.544;2022-12-10T16:16:56;20.40;;;8.35;;
23565;SDS011;22140;48.988;8.544;2022-12-10T16:21:58;23.90;;;9.23;;
23565;SDS011;22140;48.988;8.544;2022-12-10T16:26:59;25.67;;;10.53;;
23565;SDS011;22140;48.988;8.544;2022-12-10T16:32:00;22.70;;;9.90;;
23565;SDS011;22140;48.988;8.544;2022-12-10T16:37:02;21.20;;;9.55;;
23565;SDS011;22140;48.988;8.544;2022-12-10T16:42:03;23.20;;;10.88;;
23565;SDS011;22140;48.988;8.544;2022-12-10T16:47:10;28.98;;;12.52;;
23565;SDS011;22140;48.988;8.544;2022-12-10T16:52:13;26.57;;;11.33;;
23565;SDS011;22140;48.988;8.544;2022-12-10T16:57:14;25.13;;;9.65;;
23565;SDS011;22140;48.988;8.544;2022-12-10T17:02:16;33.83;;;15.25;;
23565;SDS011;22140;48.988;8.544;2022-12-10T17:07:18;39.40;;;16.00;;
23565;SDS011;22140;48.988;8.544;2022-12-10T17:12:20;24.45;;;10.30;;
23565;SDS011;22140;48.988;8.544;2022-12-10T17:17:21;23.63;;;9.27;;
23565;SDS011;22140;48.988;8.544;2022-12-10T17:22:22;23.42;;;11.02;;
23565;SDS011;22140;48.988;8.544;2022-12-10T17:27:24;23.95;;;9.57;;
23565;SDS011;22140;48.988;8.544;2022-12-10T17:32:25;21.63;;;9.13;;
23565;SDS011;22140;48.988;8.544;2022-12-10T17:37:28;25.05;;;10.05;;
23565;SDS011;22140;48.988;8.544;2022-12-10T17:42:31;25.13;;;9.53;;
23565;SDS011;22140;48.988;8.544;2022-12-10T17:47:32;20.85;;;8.35;;
23565;SDS011;22140;48.988;8.544;2022-12-10T17:52:34;21.20;;;8.68;;
23565;SDS011;22140;48.988;8.544;2022-12-10T17:57:35;23.73;;;9.20;;
23565;SDS011;22140;48.988;8.544;2022-12-10T18:02:36;21.17;;;9.13;;
23565;SDS011;22140;48.988;8.544;2022-12-10T18:07:38;26.03;;;10.23;;
23565;SDS011;22140;48.988;8.544;2022-12-10T18:12:39;23.90;;;10.30;;
23565;SDS011;22140;48.988;8.544;2022-12-10T18:17:40;22.50;;;10.00;;
23565;SDS011;22140;48.988;8.544;2022-12-10T18:22:42;27.92;;;11.70;;
23565;SDS011;22140;48.988;8.544;2022-12-10T18:27:43;25.83;;;11.52;;
23565;SDS011;22140;48.988;8.544;2022-12-10T18:32:45;25.73;;;10.83;;
23565;SDS011;22140;48.988;8.544;2022-12-10T18:37:46;27.65;;;11.30;;
23565;SDS011;22140;48.988;8.544;2022-12-10T18:42:47;28.85;;;12.07;;
23565;SDS011;22140;48.988;8.544;2022-12-10T18:47:51;31.65;;;14.68;;
23565;SDS011;22140;48.988;8.544;2022-12-10T18:52:58;28.15;;;11.88;;
23565;SDS011;22140;48.988;8.544;2022-12-10T18:58:00;33.83;;;13.40;;
23565;SDS011;22140;48.988;8.544;2022-12-10T19:03:07;45.50;;;19.50;;
23565;SDS011;22140;48.988;8.544;2022-12-10T19:08:09;41.28;;;16.73;;
23565;SDS011;22140;48.988;8.544;2022-12-10T19:13:11;30.70;;;13.55;;
23565;SDS011;22140;48.988;8.544;2022-12-10T19:18:13;24.88;;;10.63;;
23565;SDS011;22140;48.988;8.544;2022-12-10T19:23:15;31.13;;;11.00;;
23565;SDS011;22140;48.988;8.544;2022-12-10T19:28:16;26.67;;;10.70;;
23565;SDS011;22140;48.988;8.544;2022-12-10T19:33:20;50.58;;;13.43;;
23565;SDS011;22140;48.988;8.544;2022-12-10T19:38:21;30.17;;;10.57;;
23565;SDS011;22140;48.988;8.544;2022-12-10T19:43:23;35.13;;;13.57;;
23565;SDS011;22140;48.988;8.544;2022-12-10T19:48:24;37.70;;;12.37;;
23565;SDS011;22140;48.988;8.544;2022-12-10T19:53:31;27.83;;;11.38;;
23565;SDS011;22140;48.988;8.544;2022-12-10T19:58:33;40.85;;;15.60;;
23565;SDS011;22140;48.988;8.544;2022-12-10T20:03:34;26.85;;;11.02;;
23565;SDS011;22140;48.988;8.544;2022-12-10T20:08:35;35.47;;;14.68;;
23565;SDS011;22140;48.988;8.544;2022-12-10T20:13:37;23.87;;;9.53;;
23565;SDS011;22140;48.988;8.544;2022-12-10T20:18:38;22.52;;;9.95;;
23565;SDS011;22140;48.988;8.544;2022-12-10T20:23:40;30.05;;;10.95;;
23565;SDS011;22140;48.988;8.544;2022-12-10T20:28:41;33.55;;;12.27;;
23565;SDS011;22140;48.988;8.544;2022-12-10T20:33:42;33.25;;;13.18;;
23565;SDS011;22140;48.988;8.544;2022-12-10T20:38:47;30.80;;;14.00;;
23565;SDS011;22140;48.988;8.544;2022-12-10T20:43:49;29.77;;;12.60;;
23565;SDS011;22140;48.988;8.544;2022-12-10T20:48:51;31.38;;;12.45;;
23565;SDS011;22140;48.988;8.544;2022-12-10T20:53:53;30.15;;;12.73;;
23565;SDS011;22140;48.988;8.544;2022-12-10T20:58:54;27.70;;;11.77;;
23565;SDS011;22140;48.988;8.544;2022-12-10T21:03:55;29.63;;;10.93;;
23565;SDS011;22140;48.988;8.544;2022-12-10T21:08:57;28.55;;;12.05;;
23565;SDS011;22140;48.988;8.544;2022-12-10T21:13:58;31.67;;;12.88;;
23565;SDS011;22140;48.988;8.544;2022-12-10T21:18:59;38.75;;;16.85;;
23565;SDS011;22140;48.988;8.544;2022-12-10T21:24:01;36.58;;;14.90;;
23565;SDS011;22140;48.988;8.544;2022-12-10T21:29:02;31.07;;;14.57;;
23565;SDS011;22140;48.988;8.544;2022-12-10T21:34:04;36.38;;;15.35;;
23565;SDS011;22140;48.988;8.544;2022-12-10T21:39:05;48.10;;;17.52;;
23565;SDS011;22140;48.988;8.544;2022-12-10T21:44:07;30.15;;;11.95;;
23565;SDS011;22140;48.988;8.544;2022-12-10T21:49:08;47.55;;;16.02;;
23565;SDS011;22140;48.988;8.544;2022-12-10T21:54:10;36.20;;;14.87;;
23565;SDS011;22140;48.988;8.544;2022-12-10T21:59:11;35.20;;;15.43;;
23565;SDS011;22140;48.988;8.544;2022-12-10T22:04:12;31.08;;;12.70;;
23565;SDS011;22140;48.988;8.544;2022-12-10T22:09:32;33.00;;;13.00;;
23565;SDS011;22140;48.988;8.544;2022-12-10T22:15:07;36.03;;;12.77;;
23565;SDS011;22140;48.988;8.544;2022-12-10T22:20:09;28.93;;;11.10;;
23565;SDS011;22140;48.988;8.544;2022-12-10T22:25:10;30.35;;;11.35;;
23565;SDS011;22140;48.988;8.544;2022-12-10T22:30:12;25.00;;;10.40;;
23565;SDS011;22140;48.988;8.544;2022-12-10T22:35:13;29.48;;;11.95;;
23565;SDS011;22140;48.988;8.544;2022-12-10T22:40:15;35.50;;;13.13;;
23565;SDS011;22140;48.988;8.544;2022-12-10T22:45:16;29.63;;;12.30;;
23565;SDS011;22140;48.988;8.544;2022-12-10T22:50:18;30.48;;;11.98;;
23565;SDS011;22140;48.988;8.544;2022-12-10T22:55:19;29.25;;;11.98;;
23565;SDS011;22140;48.988;8.544;2022-12-10T23:00:21;37.83;;;15.13;;
23565;SDS011;22140;48.988;8.544;2022-12-10T23:05:22;39.40;;;16.05;;
23565;SDS011;22140;48.988;8.544;2022-12-10T23:10:24;34.50;;;14.60;;
23565;SDS011;22140;48.988;8.544;2022-12-10T23:15:25;34.13;;;14.60;;
23565;SDS011;22140;48.988;8.544;2022-12-10T23:20:27;44.22;;;18.55;;
23565;SDS011;22140;48.988;8.544;2022-12-10T23:25:28;40.50;;;17.50;;
23565;SDS011;22140;48.988;8.544;2022-12-10T23:30:30;43.70;;;15.02;;
23565;SDS011;22140;48.988;8.544;2022-12-10T23:35:31;34.10;;;12.93;;
23565;SDS011;22140;48.988;8.544;2022-12-10T23:40:32;33.65;;;14.65;;
23565;SDS011;22140;48.988;8.544;2022-12-10T23:45:33;33.67;;;14.32;;
23565;SDS011;22140;48.988;8.544;2022-12-10T23:50:35;33.00;;;13.32;;
23565;SDS011;22140;48.988;8.544;2022-12-10T23:55:40;35.80;;;13.90;;
